sensor_id;sensor_type;location;lat;lon;timestamp;pressure;altitude;pressure_sealevel;temperature;humidity
18509;BME280;9383;50.928;12.116;2022-12-15T00:02:35;97679.19;;;-10.80;88.78
18509;BME280;9383;50.928;12.116;2022-12-15T00:05:20;97683.41;;;-10.82;89.18
18509;BME280;9383;50.928;12.116;2022-12-15T00:08:07;97679.94;;;-10.84;88.66
18509;BME280;9383;50.928;12.116;2022-12-15T00:10:52;97675.53;;;-10.89;89.06
18509;BME280;9383;50.928;12.116;2022-12-15T00:13:38;97678.88;;;-10.91;88.99
18509;BME280;9383;50.928;12.116;2022-12-15T00:16:23;97592.81;;;-11.47;88.45
18509;BME280;9383;50.928;12.116;2022-12-15T00:19:08;97688.03;;;-10.99;88.55
18509;BME280;9383;50.928;12.116;2022-12-15T00:21:53;97690.44;;;-11.04;88.71
18509;BME280;9383;50.928;12.116;2022-12-15T00:24:38;97692.91;;;-11.07;88.45
18509;BME280;9383;50.928;12.116;2022-12-15T00:27:24;97694.44;;;-11.12;88.02
18509;BME280;9383;50.928;12.116;2022-12-15T00:30:10;97690.88;;;-11.18;87.96
18509;BME280;9383;50.928;12.116;2022-12-15T00:32:55;97691.63;;;-11.22;88.39
18509;BME280;9383;50.928;12.116;2022-12-15T00:35:40;97691.50;;;-11.25;87.96
18509;BME280;9383;50.928;12.116;2022-12-15T00:38:26;97691.31;;;-11.31;87.83
18509;BME280;9383;50.928;12.116;2022-12-15T00:41:13;97692.91;;;-11.35;88.20
18509;BME280;9383;50.928;12.116;2022-12-15T00:43:40;97698.00;;;-11.36;88.30
18509;BME280;9383;50.928;12.116;2022-12-15T00:46:07;97710.66;;;-11.39;87.55
18509;BME280;9383;50.928;12.116;2022-12-15T00:48:53;97716.53;;;-11.43;88.31
18509;BME280;9383;50.928;12.116;2022-12-15T00:51:19;97727.47;;;-11.48;87.62
18509;BME280;9383;50.928;12.116;2022-12-15T00:53:46;97729.13;;;-11.50;87.99
18509;BME280;9383;50.928;12.116;2022-12-15T00:56:32;97738.38;;;-11.53;88.33
18509;BME280;9383;50.928;12.116;2022-12-15T00:59:17;97737.41;;;-11.57;87.77
18509;BME280;9383;50.928;12.116;2022-12-15T01:02:03;97742.41;;;-11.60;87.71
18509;BME280;9383;50.928;12.116;2022-12-15T01:04:53;97747.41;;;-11.63;88.23
18509;BME280;9383;50.928;12.116;2022-12-15T01:07:40;97746.47;;;-11.67;87.72
18509;BME280;9383;50.928;12.116;2022-12-15T01:10:29;97745.47;;;-11.70;87.73
18509;BME280;9383;50.928;12.116;2022-12-15T01:13:14;97748.75;;;-11.75;88.28
18509;BME280;9383;50.928;12.116;2022-12-15T01:16:11;97752.00;;;-11.79;87.76
18509;BME280;9383;50.928;12.116;2022-12-15T01:18:57;97760.47;;;-11.81;88.28
18509;BME280;9383;50.928;12.116;2022-12-15T01:21:51;97764.63;;;-11.83;88.44
18509;BME280;9383;50.928;12.116;2022-12-15T01:24:21;97763.66;;;-11.87;88.36
18509;BME280;9383;50.928;12.116;2022-12-15T01:26:48;97766.16;;;-11.89;88.01
18509;BME280;9383;50.928;12.116;2022-12-15T01:29:15;97769.53;;;-11.90;88.16
18509;BME280;9383;50.928;12.116;2022-12-15T01:31:55;97684.28;;;-12.44;88.42
18509;BME280;9383;50.928;12.116;2022-12-15T01:34:22;97770.28;;;-11.92;88.34
18509;BME280;9383;50.928;12.116;2022-12-15T01:36:49;97770.28;;;-11.92;88.98
18509;BME280;9383;50.928;12.116;2022-12-15T01:39:17;97772.81;;;-11.94;88.26
18509;BME280;9383;50.928;12.116;2022-12-15T01:41:44;97777.03;;;-11.94;88.21
18509;BME280;9383;50.928;12.116;2022-12-15T01:44:18;97772.69;;;-11.97;88.66
18509;BME280;9383;50.928;12.116;2022-12-15T01:46:49;97774.31;;;-11.99;88.48
18509;BME280;9383;50.928;12.116;2022-12-15T01:49:28;97782.81;;;-12.00;89.04
18509;BME280;9383;50.928;12.116;2022-12-15T01:52:01;97788.72;;;-12.01;88.95
18509;BME280;9383;50.928;12.116;2022-12-15T01:54:50;97782.72;;;-12.03;88.66
18509;BME280;9383;50.928;12.116;2022-12-15T01:57:24;97781.00;;;-12.04;88.49
18509;BME280;9383;50.928;12.116;2022-12-15T01:59:56;97779.25;;;-12.05;88.67
18509;BME280;9383;50.928;12.116;2022-12-15T02:02:27;97785.22;;;-12.05;88.86
18509;BME280;9383;50.928;12.116;2022-12-15T02:05:02;97780.94;;;-12.06;89.13
18509;BME280;9383;50.928;12.116;2022-12-15T02:07:38;97783.47;;;-12.06;89.01
18509;BME280;9383;50.928;12.116;2022-12-15T02:10:06;97785.13;;;-12.08;88.92
18509;BME280;9383;50.928;12.116;2022-12-15T02:15:49;97797.97;;;-12.06;89.41
18509;BME280;9383;50.928;12.116;2022-12-15T02:18:54;97798.81;;;-12.06;89.45
18509;BME280;9383;50.928;12.116;2022-12-15T02:21:46;97796.16;;;-12.09;89.07
18509;BME280;9383;50.928;12.116;2022-12-15T02:27:21;97811.53;;;-12.07;89.59
18509;BME280;9383;50.928;12.116;2022-12-15T02:30:34;97813.22;;;-12.08;89.15
18509;BME280;9383;50.928;12.116;2022-12-15T02:33:26;97808.09;;;-12.08;89.46
18509;BME280;9383;50.928;12.116;2022-12-15T02:36:13;97810.66;;;-12.08;89.59
18509;BME280;9383;50.928;12.116;2022-12-15T02:38:55;97811.53;;;-12.07;89.25
18509;BME280;9383;50.928;12.116;2022-12-15T02:41:44;97822.63;;;-12.07;89.22
18509;BME280;9383;50.928;12.116;2022-12-15T02:56:25;97854.31;;;-12.02;89.75
18509;BME280;9383;50.928;12.116;2022-12-15T03:04:11;97872.28;;;-11.98;90.29
18509;BME280;9383;50.928;12.116;2022-12-15T03:06:38;97872.41;;;-11.95;90.08
18509;BME280;9383;50.928;12.116;2022-12-15T03:09:05;97875.03;;;-11.94;90.23
18509;BME280;9383;50.928;12.116;2022-12-15T03:11:32;97875.13;;;-11.91;90.31
18509;BME280;9383;50.928;12.116;2022-12-15T03:13:58;97870.06;;;-11.89;90.09
18509;BME280;9383;50.928;12.116;2022-12-15T03:16:25;97873.56;;;-11.87;90.96
18509;BME280;9383;50.928;12.116;2022-12-15T03:18:58;97871.94;;;-11.85;90.60
18509;BME280;9383;50.928;12.116;2022-12-15T03:21:24;97877.97;;;-11.83;91.10
18509;BME280;9383;50.928;12.116;2022-12-15T03:23:51;97869.47;;;-11.82;90.73
18509;BME280;9383;50.928;12.116;2022-12-15T03:26:17;97872.94;;;-11.80;90.77
18509;BME280;9383;50.928;12.116;2022-12-15T03:28:44;97878.16;;;-11.77;90.91
18509;BME280;9383;50.928;12.116;2022-12-15T03:31:11;97879.06;;;-11.76;90.90
18509;BME280;9383;50.928;12.116;2022-12-15T03:33:38;97871.44;;;-11.75;91.59
18509;BME280;9383;50.928;12.116;2022-12-15T03:36:05;97878.34;;;-11.72;91.71
18509;BME280;9383;50.928;12.116;2022-12-15T03:38:32;97874.97;;;-11.71;91.41
18509;BME280;9383;50.928;12.116;2022-12-15T03:40:58;97874.13;;;-11.70;91.75
18509;BME280;9383;50.928;12.116;2022-12-15T03:43:25;97874.22;;;-11.68;91.42
18509;BME280;9383;50.928;12.116;2022-12-15T03:45:51;97876.84;;;-11.67;91.63
18509;BME280;9383;50.928;12.116;2022-12-15T03:48:19;97885.34;;;-11.66;92.18
18509;BME280;9383;50.928;12.116;2022-12-15T03:50:47;97883.69;;;-11.66;91.75
18509;BME280;9383;50.928;12.116;2022-12-15T03:53:15;97881.94;;;-11.67;91.76
18509;BME280;9383;50.928;12.116;2022-12-15T03:55:41;97895.56;;;-11.66;91.58
18509;BME280;9383;50.928;12.116;2022-12-15T03:58:08;97894.72;;;-11.67;91.54
18509;BME280;9383;50.928;12.116;2022-12-15T04:00:34;97890.44;;;-11.68;92.08
18509;BME280;9383;50.928;12.116;2022-12-15T04:03:01;97897.22;;;-11.68;91.63
18509;BME280;9383;50.928;12.116;2022-12-15T04:05:31;97900.59;;;-11.69;92.04
18509;BME280;9383;50.928;12.116;2022-12-15T04:08:00;97897.22;;;-11.68;91.81
18509;BME280;9383;50.928;12.116;2022-12-15T04:10:29;97896.38;;;-11.69;91.93
18509;BME280;9383;50.928;12.116;2022-12-15T04:13:00;97898.91;;;-11.69;91.19
18509;BME280;9383;50.928;12.116;2022-12-15T04:15:27;97896.28;;;-11.70;91.66
18509;BME280;9383;50.928;12.116;2022-12-15T04:17:54;97897.97;;;-11.71;91.77
18509;BME280;9383;50.928;12.116;2022-12-15T04:20:21;97897.03;;;-11.73;91.21
18509;BME280;9383;50.928;12.116;2022-12-15T04:22:49;97897.03;;;-11.73;91.74
18509;BME280;9383;50.928;12.116;2022-12-15T04:25:21;97910.56;;;-11.76;91.64
18509;BME280;9383;50.928;12.116;2022-12-15T04:28:08;97911.34;;;-11.78;91.70
18509;BME280;9383;50.928;12.116;2022-12-15T04:33:54;97921.50;;;-11.80;91.55
18509;BME280;9383;50.928;12.116;2022-12-15T04:36:41;97927.44;;;-11.81;91.10
18509;BME280;9383;50.928;12.116;2022-12-15T04:39:28;97937.66;;;-11.81;91.51
18509;BME280;9383;50.928;12.116;2022-12-15T04:42:13;97933.38;;;-11.82;91.13
18509;BME280;9383;50.928;12.116;2022-12-15T04:45:02;97943.53;;;-11.83;90.94
18509;BME280;9383;50.928;12.116;2022-12-15T04:47:49;97930.72;;;-11.85;91.51
18509;BME280;9383;50.928;12.116;2022-12-15T04:50:35;97936.63;;;-11.86;91.29
18509;BME280;9383;50.928;12.116;2022-12-15T04:53:21;97937.44;;;-11.87;91.11
18509;BME280;9383;50.928;12.116;2022-12-15T04:56:14;97945.91;;;-11.88;91.79
18509;BME280;9383;50.928;12.116;2022-12-15T04:58:59;97939.88;;;-11.90;91.20
18509;BME280;9383;50.928;12.116;2022-12-15T05:01:45;97948.34;;;-11.91;91.98
18509;BME280;9383;50.928;12.116;2022-12-15T05:04:30;97947.50;;;-11.92;90.99
18509;BME280;9383;50.928;12.116;2022-12-15T05:07:16;97960.19;;;-11.93;91.22
18509;BME280;9383;50.928;12.116;2022-12-15T05:10:03;97954.25;;;-11.94;90.93
18509;BME280;9383;50.928;12.116;2022-12-15T05:12:49;97949.91;;;-11.95;91.22
18509;BME280;9383;50.928;12.116;2022-12-15T05:15:34;97953.34;;;-11.94;91.05
18509;BME280;9383;50.928;12.116;2022-12-15T05:18:19;97963.50;;;-11.96;91.63
18509;BME280;9383;50.928;12.116;2022-12-15T05:21:04;97972.88;;;-11.96;91.68
18509;BME280;9383;50.928;12.116;2022-12-15T05:23:50;97983.09;;;-11.96;91.70
18509;BME280;9383;50.928;12.116;2022-12-15T05:26:36;97982.19;;;-11.97;90.91
18509;BME280;9383;50.928;12.116;2022-12-15T05:29:21;97996.69;;;-11.97;91.58
18509;BME280;9383;50.928;12.116;2022-12-15T05:32:07;97991.47;;;-12.01;91.14
18509;BME280;9383;50.928;12.116;2022-12-15T05:34:35;97999.97;;;-12.00;90.90
18509;BME280;9383;50.928;12.116;2022-12-15T05:37:03;98008.53;;;-11.99;91.83
18509;BME280;9383;50.928;12.116;2022-12-15T05:39:31;98005.06;;;-12.02;91.20
18509;BME280;9383;50.928;12.116;2022-12-15T05:41:57;98010.16;;;-12.02;91.36
18509;BME280;9383;50.928;12.116;2022-12-15T05:44:24;98008.41;;;-12.03;91.33
18509;BME280;9383;50.928;12.116;2022-12-15T05:46:51;98006.69;;;-12.04;90.97
18509;BME280;9383;50.928;12.116;2022-12-15T05:49:19;98012.59;;;-12.05;91.36
18509;BME280;9383;50.928;12.116;2022-12-15T05:51:47;98019.41;;;-12.05;90.93
18509;BME280;9383;50.928;12.116;2022-12-15T05:54:16;98014.22;;;-12.07;91.38
18509;BME280;9383;50.928;12.116;2022-12-15T05:56:42;98014.13;;;-12.10;90.81
18509;BME280;9383;50.928;12.116;2022-12-15T05:59:09;98023.44;;;-12.10;90.96
18509;BME280;9383;50.928;12.116;2022-12-15T06:01:36;98023.41;;;-12.12;91.51
18509;BME280;9383;50.928;12.116;2022-12-15T06:04:04;98033.47;;;-12.15;90.79
18509;BME280;9383;50.928;12.116;2022-12-15T06:06:30;98036.84;;;-12.16;91.18
18509;BME280;9383;50.928;12.116;2022-12-15T06:08:57;98042.78;;;-12.17;91.59
18509;BME280;9383;50.928;12.116;2022-12-15T06:11:24;98043.59;;;-12.18;91.84
18509;BME280;9383;50.928;12.116;2022-12-15T06:13:51;98047.84;;;-12.19;91.78
18509;BME280;9383;50.928;12.116;2022-12-15T06:16:20;98044.41;;;-12.19;91.10
18509;BME280;9383;50.928;12.116;2022-12-15T06:18:51;98053.72;;;-12.20;91.83
18509;BME280;9383;50.928;12.116;2022-12-15T06:21:21;98060.53;;;-12.20;91.35
18509;BME280;9383;50.928;12.116;2022-12-15T06:23:49;98060.53;;;-12.20;91.97
18509;BME280;9383;50.928;12.116;2022-12-15T06:26:27;98062.19;;;-12.21;91.71
18509;BME280;9383;50.928;12.116;2022-12-15T06:28:56;98070.69;;;-12.22;92.03
18509;BME280;9383;50.928;12.116;2022-12-15T06:31:24;98063.91;;;-12.21;91.79
18509;BME280;9383;50.928;12.116;2022-12-15T06:33:52;98067.28;;;-12.22;91.98
18509;BME280;9383;50.928;12.116;2022-12-15T06:36:19;98062.09;;;-12.24;91.68
18509;BME280;9383;50.928;12.116;2022-12-15T06:38:45;98064.59;;;-12.25;91.97
18509;BME280;9383;50.928;12.116;2022-12-15T06:41:14;98079.09;;;-12.24;91.65
18509;BME280;9383;50.928;12.116;2022-12-15T06:43:41;98067.16;;;-12.25;91.67
18509;BME280;9383;50.928;12.116;2022-12-15T06:46:08;98077.38;;;-12.25;92.15
18509;BME280;9383;50.928;12.116;2022-12-15T06:48:35;98081.59;;;-12.26;92.01
18509;BME280;9383;50.928;12.116;2022-12-15T06:51:05;98087.59;;;-12.25;91.74
18509;BME280;9383;50.928;12.116;2022-12-15T06:53:35;98083.25;;;-12.26;92.29
18509;BME280;9383;50.928;12.116;2022-12-15T06:56:04;98087.50;;;-12.27;92.08
18509;BME280;9383;50.928;12.116;2022-12-15T06:58:34;98079.84;;;-12.27;91.91
18509;BME280;9383;50.928;12.116;2022-12-15T07:01:05;98085.81;;;-12.26;92.84
18509;BME280;9383;50.928;12.116;2022-12-15T07:03:35;98090.06;;;-12.27;92.34
18509;BME280;9383;50.928;12.116;2022-12-15T07:06:03;98090.88;;;-12.28;92.35
18509;BME280;9383;50.928;12.116;2022-12-15T07:08:32;98096.78;;;-12.29;91.97
18509;BME280;9383;50.928;12.116;2022-12-15T07:11:01;98100.91;;;-12.33;92.53
18509;BME280;9383;50.928;12.116;2022-12-15T07:13:27;98099.16;;;-12.34;92.22
18509;BME280;9383;50.928;12.116;2022-12-15T07:15:57;98095.66;;;-12.36;92.00
18509;BME280;9383;50.928;12.116;2022-12-15T07:18:25;98086.25;;;-12.37;91.91
18509;BME280;9383;50.928;12.116;2022-12-15T07:20:51;98094.78;;;-12.36;91.90
18509;BME280;9383;50.928;12.116;2022-12-15T07:23:18;98094.72;;;-12.38;92.47
18509;BME280;9383;50.928;12.116;2022-12-15T07:25:45;98109.09;;;-12.40;91.71
18509;BME280;9383;50.928;12.116;2022-12-15T07:28:11;98106.41;;;-12.43;92.46
18509;BME280;9383;50.928;12.116;2022-12-15T07:30:38;98117.44;;;-12.44;91.70
18509;BME280;9383;50.928;12.116;2022-12-15T07:33:05;98121.63;;;-12.46;91.18
18509;BME280;9383;50.928;12.116;2022-12-15T07:35:32;98122.44;;;-12.47;92.20
18509;BME280;9383;50.928;12.116;2022-12-15T07:38:00;98118.13;;;-12.48;91.97
18509;BME280;9383;50.928;12.116;2022-12-15T07:40:27;98119.78;;;-12.49;92.15
18509;BME280;9383;50.928;12.116;2022-12-15T07:42:53;98120.69;;;-12.48;91.68
18509;BME280;9383;50.928;12.116;2022-12-15T07:45:20;98118.06;;;-12.50;92.54
18509;BME280;9383;50.928;12.116;2022-12-15T07:47:49;98134.31;;;-12.48;92.10
18509;BME280;9383;50.928;12.116;2022-12-15T07:50:16;98133.44;;;-12.48;91.73
18509;BME280;9383;50.928;12.116;2022-12-15T07:52:45;98136.00;;;-12.48;92.17
18509;BME280;9383;50.928;12.116;2022-12-15T07:55:14;98136.00;;;-12.48;91.75
18509;BME280;9383;50.928;12.116;2022-12-15T07:57:42;98135.19;;;-12.47;92.01
18509;BME280;9383;50.928;12.116;2022-12-15T08:00:09;98134.38;;;-12.46;92.24
18509;BME280;9383;50.928;12.116;2022-12-15T08:02:40;98138.69;;;-12.45;91.95
18509;BME280;9383;50.928;12.116;2022-12-15T08:05:08;98142.16;;;-12.43;92.12
18509;BME280;9383;50.928;12.116;2022-12-15T08:07:35;98138.81;;;-12.42;91.96
18509;BME280;9383;50.928;12.116;2022-12-15T08:10:01;98142.25;;;-12.41;92.28
18509;BME280;9383;50.928;12.116;2022-12-15T08:12:30;98144.84;;;-12.40;91.86
18509;BME280;9383;50.928;12.116;2022-12-15T08:14:56;98149.13;;;-12.39;91.98
18509;BME280;9383;50.928;12.116;2022-12-15T08:17:23;98147.47;;;-12.38;91.78
18509;BME280;9383;50.928;12.116;2022-12-15T08:19:49;98148.41;;;-12.36;91.98
18509;BME280;9383;50.928;12.116;2022-12-15T08:22:16;98148.47;;;-12.35;91.85
18509;BME280;9383;50.928;12.116;2022-12-15T08:24:44;98150.22;;;-12.34;91.91
18509;BME280;9383;50.928;12.116;2022-12-15T08:27:11;98153.72;;;-12.32;92.18
18509;BME280;9383;50.928;12.116;2022-12-15T08:29:37;98166.56;;;-12.30;91.76
18509;BME280;9383;50.928;12.116;2022-12-15T08:32:05;98165.78;;;-12.27;92.40
18509;BME280;9383;50.928;12.116;2022-12-15T08:34:34;98153.03;;;-12.27;92.08
18509;BME280;9383;50.928;12.116;2022-12-15T08:37:00;98156.53;;;-12.25;91.50
18509;BME280;9383;50.928;12.116;2022-12-15T08:39:27;98160.06;;;-12.22;92.45
18509;BME280;9383;50.928;12.116;2022-12-15T08:41:55;98164.44;;;-12.19;92.22
18509;BME280;9383;50.928;12.116;2022-12-15T08:44:21;98164.56;;;-12.16;92.46
18509;BME280;9383;50.928;12.116;2022-12-15T08:46:48;98170.69;;;-12.12;92.51
18509;BME280;9383;50.928;12.116;2022-12-15T08:49:15;98170.88;;;-12.08;92.33
18509;BME280;9383;50.928;12.116;2022-12-15T08:51:42;98165.91;;;-12.05;92.34
18509;BME280;9383;50.928;12.116;2022-12-15T08:54:08;98160.94;;;-12.00;92.87
18509;BME280;9383;50.928;12.116;2022-12-15T08:56:35;98168.00;;;-11.94;92.58
18509;BME280;9383;50.928;12.116;2022-12-15T08:59:02;98165.56;;;-11.91;93.14
18509;BME280;9383;50.928;12.116;2022-12-15T09:01:30;98157.25;;;-11.87;93.15
18509;BME280;9383;50.928;12.116;2022-12-15T09:03:58;98156.63;;;-11.81;93.17
18509;BME280;9383;50.928;12.116;2022-12-15T09:06:29;98151.66;;;-11.77;92.60
18509;BME280;9383;50.928;12.116;2022-12-15T09:08:59;98160.41;;;-11.71;93.36
18509;BME280;9383;50.928;12.116;2022-12-15T09:11:28;98171.69;;;-11.66;92.92
18509;BME280;9383;50.928;12.116;2022-12-15T09:13:55;98179.63;;;-11.60;93.04
18509;BME280;9383;50.928;12.116;2022-12-15T09:16:22;98179.03;;;-11.53;93.86
18509;BME280;9383;50.928;12.116;2022-12-15T09:18:51;98176.03;;;-11.42;93.70
18509;BME280;9383;50.928;12.116;2022-12-15T09:21:20;98184.13;;;-11.32;94.57
18509;BME280;9383;50.928;12.116;2022-12-15T09:23:54;98181.94;;;-11.22;94.48
18509;BME280;9383;50.928;12.116;2022-12-15T09:26:22;98181.50;;;-11.12;95.17
18509;BME280;9383;50.928;12.116;2022-12-15T09:28:50;98177.59;;;-11.02;94.79
18509;BME280;9383;50.928;12.116;2022-12-15T09:31:22;98183.06;;;-10.93;95.09
18509;BME280;9383;50.928;12.116;2022-12-15T09:33:51;98180.91;;;-10.82;95.90
18509;BME280;9383;50.928;12.116;2022-12-15T09:43:03;98199.47;;;-10.40;96.55
18509;BME280;9383;50.928;12.116;2022-12-15T09:49:10;98199.69;;;-10.10;96.83
18509;BME280;9383;50.928;12.116;2022-12-15T09:52:11;98195.13;;;-9.93;96.81
18509;BME280;9383;50.928;12.116;2022-12-15T09:54:57;98188.78;;;-9.78;96.95
18509;BME280;9383;50.928;12.116;2022-12-15T10:08:22;98206.13;;;-8.90;98.37
18509;BME280;9383;50.928;12.116;2022-12-15T10:10:58;98205.81;;;-8.70;99.13
18509;BME280;9383;50.928;12.116;2022-12-15T10:13:39;98212.38;;;-8.51;99.16
18509;BME280;9383;50.928;12.116;2022-12-15T10:16:33;98207.81;;;-8.29;99.36
18509;BME280;9383;50.928;12.116;2022-12-15T10:19:10;98216.94;;;-8.10;99.33
18509;BME280;9383;50.928;12.116;2022-12-15T10:21:39;98210.50;;;-7.94;99.47
18509;BME280;9383;50.928;12.116;2022-12-15T10:24:17;98203.31;;;-7.72;99.61
18509;BME280;9383;50.928;12.116;2022-12-15T10:26:52;98208.97;;;-7.54;99.55
18509;BME280;9383;50.928;12.116;2022-12-15T10:29:44;98212.03;;;-7.33;99.70
18509;BME280;9383;50.928;12.116;2022-12-15T10:32:23;98169.81;;;-7.40;99.48
18509;BME280;9383;50.928;12.116;2022-12-15T10:34:53;98202.56;;;-6.98;99.97
18509;BME280;9383;50.928;12.116;2022-12-15T10:37:20;98219.31;;;-6.79;99.82
18509;BME280;9383;50.928;12.116;2022-12-15T10:39:49;98213.63;;;-6.64;99.98
18509;BME280;9383;50.928;12.116;2022-12-15T10:42:24;98214.78;;;-6.49;100.00
18509;BME280;9383;50.928;12.116;2022-12-15T10:44:55;98203.94;;;-6.32;99.94
18509;BME280;9383;50.928;12.116;2022-12-15T10:47:30;98201.75;;;-6.14;100.00
18509;BME280;9383;50.928;12.116;2022-12-15T10:50:17;98179.78;;;-5.93;100.00
18509;BME280;9383;50.928;12.116;2022-12-15T10:52:46;98178.38;;;-5.74;100.00
18509;BME280;9383;50.928;12.116;2022-12-15T10:55:43;98170.13;;;-5.53;100.00
18509;BME280;9383;50.928;12.116;2022-12-15T10:58:18;98180.84;;;-5.31;100.00
18509;BME280;9383;50.928;12.116;2022-12-15T11:00:47;98180.25;;;-5.11;100.00
18509;BME280;9383;50.928;12.116;2022-12-15T11:03:24;98180.59;;;-4.88;100.00
18509;BME280;9383;50.928;12.116;2022-12-15T11:05:54;98179.13;;;-4.70;100.00
18509;BME280;9383;50.928;12.116;2022-12-15T11:08:21;98180.25;;;-4.51;100.00
18509;BME280;9383;50.928;12.116;2022-12-15T11:10:53;98177.03;;;-4.31;100.00
18509;BME280;9383;50.928;12.116;2022-12-15T11:13:40;98178.16;;;-4.09;100.00
18509;BME280;9383;50.928;12.116;2022-12-15T11:16:14;98167.16;;;-3.91;100.00
18509;BME280;9383;50.928;12.116;2022-12-15T11:21:21;98167.47;;;-3.57;100.00
18509;BME280;9383;50.928;12.116;2022-12-15T11:26:57;98156.50;;;-3.25;99.99
18509;BME280;9383;50.928;12.116;2022-12-15T11:31:54;98177.47;;;-2.92;99.71
18509;BME280;9383;50.928;12.116;2022-12-15T11:34:24;98182.78;;;-2.75;99.57
18509;BME280;9383;50.928;12.116;2022-12-15T11:46:19;98160.66;;;-1.81;98.45
18509;BME280;9383;50.928;12.116;2022-12-15T11:51:41;98149.44;;;-1.33;97.54
18509;BME280;9383;50.928;12.116;2022-12-15T11:56:49;98131.19;;;-0.91;96.58
18509;BME280;9383;50.928;12.116;2022-12-15T12:05:49;98147.50;;;-0.29;95.46
18509;BME280;9383;50.928;12.116;2022-12-15T12:08:42;98155.22;;;-0.08;95.29
18509;BME280;9383;50.928;12.116;2022-12-15T12:11:21;98153.41;;;0.09;94.78
18509;BME280;9383;50.928;12.116;2022-12-15T12:16:56;98148.84;;;0.47;94.46
18509;BME280;9383;50.928;12.116;2022-12-15T12:20:00;98138.25;;;0.67;93.91
18509;BME280;9383;50.928;12.116;2022-12-15T12:22:38;98130.28;;;0.83;93.10
18509;BME280;9383;50.928;12.116;2022-12-15T12:25:18;98124.06;;;0.96;92.37
18509;BME280;9383;50.928;12.116;2022-12-15T12:28:05;98123.91;;;1.14;90.97
18509;BME280;9383;50.928;12.116;2022-12-15T12:30:42;98115.94;;;1.28;91.48
18509;BME280;9383;50.928;12.116;2022-12-15T12:33:22;98122.72;;;1.43;91.09
18509;BME280;9383;50.928;12.116;2022-12-15T12:35:58;98119.91;;;1.61;91.47
18509;BME280;9383;50.928;12.116;2022-12-15T12:38:40;98111.81;;;1.80;91.76
18509;BME280;9383;50.928;12.116;2022-12-15T12:41:25;98108.09;;;2.00;92.43
18509;BME280;9383;50.928;12.116;2022-12-15T12:44:09;98102.63;;;2.17;92.05
18509;BME280;9383;50.928;12.116;2022-12-15T12:46:48;98111.19;;;2.28;89.93
18509;BME280;9383;50.928;12.116;2022-12-15T12:51:56;98105.56;;;2.53;87.80
18509;BME280;9383;50.928;12.116;2022-12-15T12:54:38;98101.19;;;2.55;83.00
18509;BME280;9383;50.928;12.116;2022-12-15T12:59:50;98108.00;;;2.65;78.55
18509;BME280;9383;50.928;12.116;2022-12-15T13:07:32;98099.59;;;2.98;78.27
18509;BME280;9383;50.928;12.116;2022-12-15T13:10:17;98094.16;;;3.09;78.41
18509;BME280;9383;50.928;12.116;2022-12-15T13:13:20;98105.28;;;3.20;78.43
18509;BME280;9383;50.928;12.116;2022-12-15T13:16:18;98105.75;;;3.41;78.34
18509;BME280;9383;50.928;12.116;2022-12-15T13:18:57;98106.13;;;3.68;79.56
18509;BME280;9383;50.928;12.116;2022-12-15T13:27:23;98098.34;;;4.44;72.05
18509;BME280;9383;50.928;12.116;2022-12-15T13:29:58;98092.03;;;4.87;74.53
18509;BME280;9383;50.928;12.116;2022-12-15T13:32:36;98088.63;;;5.50;74.32
18509;BME280;9383;50.928;12.116;2022-12-15T13:35:30;98090.03;;;6.22;73.38
18509;BME280;9383;50.928;12.116;2022-12-15T13:38:01;98082.78;;;6.84;67.04
18509;BME280;9383;50.928;12.116;2022-12-15T13:43:08;98082.25;;;7.98;65.18
18509;BME280;9383;50.928;12.116;2022-12-15T13:46:09;98083.72;;;8.52;62.36
18509;BME280;9383;50.928;12.116;2022-12-15T13:48:50;98090.53;;;8.80;58.90
18509;BME280;9383;50.928;12.116;2022-12-15T13:51:27;98091.88;;;8.68;54.97
18509;BME280;9383;50.928;12.116;2022-12-15T13:54:01;98103.66;;;8.37;52.95
18509;BME280;9383;50.928;12.116;2022-12-15T13:56:58;98100.94;;;7.92;49.90
18509;BME280;9383;50.928;12.116;2022-12-15T13:59:33;98110.53;;;7.45;48.84
18509;BME280;9383;50.928;12.116;2022-12-15T14:02:12;98120.06;;;6.99;48.30
18509;BME280;9383;50.928;12.116;2022-12-15T14:07:29;98122.22;;;6.02;47.59
18509;BME280;9383;50.928;12.116;2022-12-15T14:09:56;98126.88;;;5.60;47.31
18509;BME280;9383;50.928;12.116;2022-12-15T14:12:23;98128.84;;;5.20;46.99
18509;BME280;9383;50.928;12.116;2022-12-15T14:14:49;98128.03;;;4.82;47.02
18509;BME280;9383;50.928;12.116;2022-12-15T14:17:18;98135.09;;;4.42;47.29
18509;BME280;9383;50.928;12.116;2022-12-15T14:19:47;98128.03;;;4.06;47.39
18509;BME280;9383;50.928;12.116;2022-12-15T14:22:20;98128.75;;;3.71;47.16
18509;BME280;9383;50.928;12.116;2022-12-15T14:24:49;98127.72;;;3.35;47.78
18509;BME280;9383;50.928;12.116;2022-12-15T14:27:27;98124.81;;;3.01;47.48
18509;BME280;9383;50.928;12.116;2022-12-15T14:32:48;98125.16;;;2.25;48.58
18509;BME280;9383;50.928;12.116;2022-12-15T14:35:31;98134.34;;;1.92;48.86
18509;BME280;9383;50.928;12.116;2022-12-15T14:38:04;98129.56;;;1.53;48.40
18509;BME280;9383;50.928;12.116;2022-12-15T14:40:35;98135.16;;;1.20;49.11
18509;BME280;9383;50.928;12.116;2022-12-15T14:43:04;98134.59;;;0.90;49.55
18509;BME280;9383;50.928;12.116;2022-12-15T14:45:34;98140.91;;;0.60;49.81
18509;BME280;9383;50.928;12.116;2022-12-15T14:48:06;98138.50;;;0.30;49.86
18509;BME280;9383;50.928;12.116;2022-12-15T14:50:33;98136.97;;;0.01;50.16
18509;BME280;9383;50.928;12.116;2022-12-15T14:53:06;98137.06;;;-0.27;50.77
18509;BME280;9383;50.928;12.116;2022-12-15T14:55:39;98142.38;;;-0.55;50.12
18509;BME280;9383;50.928;12.116;2022-12-15T14:58:31;98128.59;;;-0.85;51.08
18509;BME280;9383;50.928;12.116;2022-12-15T15:01:00;98122.56;;;-1.14;51.04
18509;BME280;9383;50.928;12.116;2022-12-15T15:03:38;98131.25;;;-1.39;51.36
18509;BME280;9383;50.928;12.116;2022-12-15T15:08:52;98139.00;;;-1.95;51.92
18509;BME280;9383;50.928;12.116;2022-12-15T15:11:26;98138.06;;;-2.19;52.50
18509;BME280;9383;50.928;12.116;2022-12-15T15:14:36;98140.56;;;-2.44;52.69
18509;BME280;9383;50.928;12.116;2022-12-15T15:17:19;98135.22;;;-2.74;52.93
18509;BME280;9383;50.928;12.116;2022-12-15T15:19:53;98147.19;;;-2.98;53.44
18509;BME280;9383;50.928;12.116;2022-12-15T15:22:41;98147.00;;;-3.22;53.56